createdAt,value
2022-10-04T00:01:47.374Z,6.40
2022-10-04T00:04:23.695Z,6.50
2022-10-04T00:06:53.866Z,6.50
2022-10-04T00:09:24.623Z,6.50
2022-10-04T00:11:54.703Z,6.40
2022-10-04T00:14:43.259Z,6.50
2022-10-04T00:17:20.389Z,6.60
2022-10-04T00:19:50.197Z,6.60
2022-10-04T00:22:21.320Z,6.70
2022-10-04T00:25:20.179Z,6.70
2022-10-04T00:28:20.259Z,6.80
2022-10-04T00:31:08.025Z,6.80
2022-10-04T00:33:58.463Z,7.00
2022-10-04T00:36:25.525Z,7.00
2022-10-04T00:39:04.994Z,7.00
2022-10-04T00:41:59.140Z,7.10
2022-10-04T00:44:33.204Z,7.00
2022-10-04T00:47:03.423Z,6.90
2022-10-04T00:49:35.973Z,6.90
2022-10-04T00:52:13.387Z,6.80
2022-10-04T00:54:50.461Z,6.70
2022-10-04T00:57:22.992Z,6.60
2022-10-04T00:59:54.207Z,6.50
2022-10-04T01:02:31.575Z,6.30
2022-10-04T01:05:20.770Z,6.20
2022-10-04T01:08:23.036Z,6.20
2022-10-04T01:10:58.925Z,6.10
2022-10-04T01:13:29.872Z,6.00
2022-10-04T01:16:14.874Z,5.90
2022-10-04T01:18:42.337Z,5.90
2022-10-04T01:21:21.528Z,5.80
2022-10-04T01:23:59.786Z,5.80
2022-10-04T01:26:30.235Z,5.80
2022-10-04T01:29:16.195Z,5.70
2022-10-04T01:31:51.807Z,5.80
2022-10-04T01:34:22.935Z,5.70
2022-10-04T01:36:53.005Z,5.70
2022-10-04T01:39:23.287Z,5.60
2022-10-04T01:41:55.621Z,5.70
2022-10-04T01:44:45.534Z,5.60
2022-10-04T01:47:18.282Z,5.60
2022-10-04T01:49:47.389Z,5.60
2022-10-04T01:52:32.372Z,5.60
2022-10-04T01:55:11.854Z,5.60
2022-10-04T01:57:48.824Z,5.60
2022-10-04T02:00:17.191Z,5.60
2022-10-04T02:02:53.331Z,5.60
2022-10-04T02:05:30.360Z,5.50
2022-10-04T02:08:02.002Z,5.40
2022-10-04T02:10:30.566Z,5.40
2022-10-04T02:12:58.465Z,5.30
2022-10-04T02:15:28.071Z,5.20
2022-10-04T02:17:57.273Z,5.30
2022-10-04T02:20:27.453Z,5.20
2022-10-04T02:23:03.346Z,5.20
2022-10-04T02:25:31.055Z,5.10
2022-10-04T02:27:58.651Z,5.10
2022-10-04T02:30:25.903Z,5.00
2022-10-04T02:33:02.831Z,4.90
2022-10-04T02:35:32.952Z,4.90
2022-10-04T02:38:23.709Z,4.80
2022-10-04T02:41:02.320Z,4.80
2022-10-04T02:43:53.577Z,4.80
2022-10-04T02:46:51.527Z,4.80
2022-10-04T02:49:38.306Z,4.70
2022-10-04T02:52:10.963Z,4.60
2022-10-04T02:55:04.141Z,4.60
2022-10-04T02:57:33.542Z,4.60
2022-10-04T03:00:12.556Z,4.60
2022-10-04T03:02:40.653Z,4.60
2022-10-04T03:05:12.252Z,4.50
2022-10-04T03:07:40.654Z,4.50
2022-10-04T03:10:12.554Z,4.60
2022-10-04T03:12:40.644Z,4.60
2022-10-04T03:15:11.174Z,4.50
2022-10-04T03:17:41.998Z,4.50
2022-10-04T03:20:12.873Z,4.50
2022-10-04T03:22:46.089Z,4.60
2022-10-04T03:25:21.339Z,4.60
2022-10-04T03:27:51.159Z,4.60
2022-10-04T03:30:22.266Z,4.60
2022-10-04T03:32:50.527Z,4.60
2022-10-04T03:35:33.359Z,4.50
2022-10-04T03:38:03.289Z,4.50
2022-10-04T03:40:32.550Z,4.50
2022-10-04T03:43:03.587Z,4.40
2022-10-04T03:45:33.458Z,4.40
2022-10-04T03:48:07.516Z,4.40
2022-10-04T03:50:48.003Z,4.30
2022-10-04T03:53:40.232Z,4.40
2022-10-04T03:56:15.996Z,4.40
2022-10-04T03:58:44.138Z,4.40
2022-10-04T04:01:40.490Z,4.30
2022-10-04T04:04:23.017Z,4.20
2022-10-04T04:07:03.978Z,4.20
2022-10-04T04:09:54.816Z,4.10
2022-10-04T04:12:35.148Z,4.10
2022-10-04T04:15:02.983Z,4.10
2022-10-04T04:17:33.192Z,4.10
2022-10-04T04:20:07.352Z,4.10
2022-10-04T04:22:36.410Z,4.10
2022-10-04T04:25:08.770Z,4.20
2022-10-04T04:27:40.011Z,4.10
2022-10-04T04:30:08.889Z,4.10
2022-10-04T04:32:44.772Z,4.20
2022-10-04T04:35:31.948Z,4.20
2022-10-04T04:38:04.756Z,4.20
2022-10-04T04:40:32.738Z,4.30
2022-10-04T04:43:02.549Z,4.30
2022-10-04T04:45:31.955Z,4.20
2022-10-04T04:48:01.281Z,4.10
2022-10-04T04:50:36.370Z,4.10
2022-10-04T04:53:16.362Z,4.00
2022-10-04T04:56:03.981Z,4.00
2022-10-04T04:58:38.288Z,4.00
2022-10-04T05:01:27.587Z,3.90
2022-10-04T05:04:21.484Z,3.90
2022-10-04T05:07:16.550Z,3.80
2022-10-04T05:09:44.166Z,3.90
2022-10-04T05:12:20.294Z,4.00
2022-10-04T05:14:53.083Z,4.00
2022-10-04T05:17:34.198Z,4.00
2022-10-04T05:20:03.162Z,4.10
2022-10-04T05:22:32.486Z,4.10
2022-10-04T05:25:06.925Z,4.10
2022-10-04T05:27:42.859Z,4.10
2022-10-04T05:30:21.871Z,4.10
2022-10-04T05:33:02.116Z,4.10
2022-10-04T05:35:38.893Z,4.10
2022-10-04T05:38:14.293Z,4.10
2022-10-04T05:40:52.089Z,4.20
2022-10-04T05:43:46.329Z,4.10
2022-10-04T05:46:27.078Z,4.10
2022-10-04T05:49:14.444Z,4.10
2022-10-04T05:51:56.017Z,4.10
2022-10-04T05:54:26.615Z,4.10
2022-10-04T05:57:20.571Z,4.10
2022-10-04T06:00:13.229Z,4.10
2022-10-04T06:03:16.900Z,4.20
2022-10-04T06:06:15.411Z,4.30
2022-10-04T06:09:08.460Z,4.40
2022-10-04T06:11:51.055Z,4.40
2022-10-04T06:14:32.865Z,4.40
2022-10-04T06:17:24.771Z,4.50
2022-10-04T06:20:15.418Z,4.50
2022-10-04T06:22:47.718Z,4.60
2022-10-04T06:25:26.454Z,4.60
2022-10-04T06:28:25.334Z,4.70
2022-10-04T06:31:11.103Z,4.80
2022-10-04T06:33:47.553Z,4.80
2022-10-04T06:36:51.465Z,4.90
2022-10-04T06:39:54.737Z,4.90
2022-10-04T06:42:40.108Z,5.00
2022-10-04T06:45:07.239Z,5.10
2022-10-04T06:48:06.229Z,5.20
2022-10-04T06:50:36.183Z,5.30
2022-10-04T06:53:35.922Z,5.40
2022-10-04T06:56:24.595Z,5.60
2022-10-04T06:59:25.671Z,5.60
2022-10-04T07:01:58.837Z,5.70
2022-10-04T07:05:08.033Z,5.70
2022-10-04T07:07:39.839Z,5.90
2022-10-04T07:10:35.261Z,6.10
2022-10-04T07:13:20.429Z,6.40
2022-10-04T07:16:16.742Z,6.50
2022-10-04T07:19:03.531Z,6.60
2022-10-04T07:21:49.260Z,6.70
2022-10-04T07:24:26.874Z,6.80
2022-10-04T07:26:55.591Z,7.00
2022-10-04T07:29:28.312Z,7.10
2022-10-04T07:32:07.768Z,7.30
2022-10-04T07:34:37.698Z,7.40
2022-10-04T07:37:13.082Z,7.50
2022-10-04T07:39:52.240Z,7.60
2022-10-04T07:42:31.374Z,7.60
2022-10-04T07:45:25.786Z,8.00
2022-10-04T07:48:15.334Z,8.90
2022-10-04T07:51:14.207Z,9.80
2022-10-04T07:53:48.769Z,10.70
2022-10-04T07:56:22.434Z,11.10
2022-10-04T07:59:10.862Z,10.90
2022-10-04T08:01:48.495Z,10.50
2022-10-04T08:04:34.004Z,10.00
2022-10-04T08:07:05.425Z,9.70
2022-10-04T08:10:08.347Z,9.60
2022-10-04T08:12:51.992Z,9.50
2022-10-04T08:15:40.629Z,9.40
2022-10-04T08:18:25.692Z,9.40
2022-10-04T08:20:59.790Z,9.50
2022-10-04T08:24:01.321Z,9.50
2022-10-04T08:27:12.529Z,9.70
2022-10-04T08:30:02.376Z,10.20
2022-10-04T08:32:43.960Z,11.00
2022-10-04T08:35:52.554Z,11.40
2022-10-04T08:38:34.951Z,11.50
2022-10-04T08:41:08.514Z,11.10
2022-10-04T08:43:51.873Z,11.70
2022-10-04T08:46:33.222Z,11.50
2022-10-04T08:49:34.512Z,12.00
2022-10-04T08:52:17.924Z,12.10
2022-10-04T08:55:03.281Z,12.30
2022-10-04T08:57:49.231Z,12.50
2022-10-04T09:00:40.897Z,12.60
2022-10-04T09:03:42.788Z,13.40
2022-10-04T09:06:37.041Z,13.50
2022-10-04T09:09:39.565Z,13.60
2022-10-04T09:12:28.605Z,13.30
2022-10-04T09:15:08.849Z,13.20
2022-10-04T09:17:47.069Z,13.40
2022-10-04T09:20:37.900Z,13.60
2022-10-04T09:23:31.191Z,13.20
2022-10-04T09:26:06.553Z,12.60
2022-10-04T09:28:52.297Z,12.40
2022-10-04T09:31:44.282Z,12.20
2022-10-04T09:34:24.100Z,12.10
2022-10-04T09:37:20.586Z,12.10
2022-10-04T09:40:18.035Z,11.90
2022-10-04T09:43:12.877Z,12.20
2022-10-04T09:45:42.893Z,12.40
2022-10-04T09:48:34.329Z,12.40
2022-10-04T09:51:20.082Z,12.60
2022-10-04T09:54:01.685Z,12.70
2022-10-04T09:56:54.092Z,12.60
2022-10-04T09:59:52.055Z,12.50
2022-10-04T10:02:35.257Z,12.60
2022-10-04T10:05:23.954Z,12.70
2022-10-04T10:08:43.043Z,12.70
2022-10-04T10:11:55.789Z,12.60
2022-10-04T10:14:34.693Z,12.70
2022-10-04T10:17:20.677Z,12.50
2022-10-04T10:20:10.174Z,12.70
2022-10-04T10:23:01.349Z,12.70
2022-10-04T10:25:40.521Z,12.80
2022-10-04T10:28:19.477Z,12.90
2022-10-04T10:31:08.825Z,12.70
2022-10-04T10:33:47.303Z,12.70
2022-10-04T10:36:36.245Z,12.90
2022-10-04T10:39:09.180Z,12.60
2022-10-04T10:42:06.510Z,12.80
2022-10-04T10:45:13.550Z,12.90
2022-10-04T10:47:56.257Z,12.90
2022-10-04T10:50:58.649Z,13.00
2022-10-04T10:53:45.490Z,13.20
2022-10-04T10:56:34.288Z,13.30
2022-10-04T10:59:23.307Z,13.40
2022-10-04T11:02:18.284Z,13.40
2022-10-04T11:05:03.330Z,13.40
2022-10-04T11:07:53.808Z,13.40
2022-10-04T11:11:00.024Z,13.40
2022-10-04T11:14:05.257Z,13.20
2022-10-04T11:17:00.905Z,13.30
2022-10-04T11:19:31.136Z,13.50
2022-10-04T11:22:34.793Z,13.70
2022-10-04T11:25:07.600Z,13.80
2022-10-04T11:27:57.891Z,13.80
2022-10-04T11:30:30.248Z,13.90
2022-10-04T11:33:33.417Z,14.00
2022-10-04T11:36:12.860Z,14.00
2022-10-04T11:39:01.455Z,14.00
2022-10-04T11:41:52.694Z,14.10
2022-10-04T11:44:41.193Z,14.10
2022-10-04T11:47:46.133Z,13.90
2022-10-04T11:50:29.076Z,13.80
2022-10-04T11:53:26.001Z,13.80
2022-10-04T11:56:17.115Z,14.00
2022-10-04T11:59:10.094Z,14.20
2022-10-04T12:02:00.212Z,14.10
2022-10-04T12:04:36.625Z,14.30
2022-10-04T12:07:44.424Z,14.30
2022-10-04T12:10:34.675Z,14.40
2022-10-04T12:13:07.880Z,14.50
2022-10-04T12:15:52.510Z,14.40
2022-10-04T12:19:21.117Z,14.60
2022-10-04T12:22:10.798Z,14.50
2022-10-04T12:24:58.065Z,14.30
2022-10-04T12:28:08.139Z,14.30
2022-10-04T12:30:47.295Z,14.30
2022-10-04T12:33:50.335Z,14.30
2022-10-04T12:36:45.862Z,14.60
2022-10-04T12:39:53.165Z,14.30
2022-10-04T12:42:53.239Z,14.30
2022-10-04T12:45:31.693Z,14.40
2022-10-04T12:48:01.970Z,14.50
2022-10-04T12:50:45.411Z,14.70
2022-10-04T12:53:21.781Z,14.60
2022-10-04T12:56:08.403Z,14.50
2022-10-04T12:59:13.128Z,14.40
2022-10-04T13:02:01.832Z,14.40
2022-10-04T13:04:39.356Z,14.50
2022-10-04T13:07:38.276Z,14.60
2022-10-04T13:10:24.737Z,14.40
2022-10-04T13:13:29.936Z,14.60
2022-10-04T13:19:16.555Z,14.40
2022-10-04T13:21:43.811Z,14.20
2022-10-04T13:24:28.826Z,14.30
2022-10-04T13:27:17.232Z,14.50
2022-10-04T13:29:58.016Z,14.40
2022-10-04T13:32:34.780Z,14.50
2022-10-04T13:35:07.649Z,14.60
2022-10-04T13:38:19.664Z,14.50
2022-10-04T13:41:11.936Z,14.50
2022-10-04T13:44:10.008Z,14.40
2022-10-04T13:46:39.883Z,14.50
2022-10-04T13:49:19.026Z,14.40
2022-10-04T13:52:12.227Z,14.50
2022-10-04T13:55:10.081Z,14.40
2022-10-04T13:57:43.236Z,14.30
2022-10-04T14:00:28.199Z,14.10
2022-10-04T14:03:16.983Z,14.20
2022-10-04T14:05:53.214Z,14.20
2022-10-04T14:08:36.897Z,14.10
2022-10-04T14:11:41.210Z,14.10
2022-10-04T14:14:43.115Z,14.00
2022-10-04T14:17:49.216Z,14.00
2022-10-04T14:20:53.884Z,13.90
2022-10-04T14:23:31.201Z,14.00
2022-10-04T14:26:16.262Z,13.90
2022-10-04T14:29:05.357Z,13.90
2022-10-04T14:32:06.795Z,14.00
2022-10-04T14:35:15.834Z,13.80
2022-10-04T14:38:24.516Z,13.70
2022-10-04T14:41:15.323Z,13.60
2022-10-04T14:43:54.812Z,13.60
2022-10-04T14:46:46.113Z,13.50
2022-10-04T14:49:19.728Z,13.50
2022-10-04T14:51:55.369Z,13.40
2022-10-04T14:54:43.911Z,13.50
2022-10-04T14:57:36.708Z,13.40
2022-10-04T15:00:30.045Z,13.40
2022-10-04T15:03:42.931Z,13.20
2022-10-04T15:06:27.013Z,13.20
2022-10-04T15:09:18.379Z,13.20
2022-10-04T15:12:36.354Z,13.10
2022-10-04T15:15:33.806Z,12.90
2022-10-04T15:18:23.321Z,12.90
2022-10-04T15:21:02.530Z,12.70
2022-10-04T15:23:43.159Z,12.60
2022-10-04T15:26:19.507Z,12.50
2022-10-04T15:28:49.801Z,12.40
2022-10-04T15:31:20.680Z,12.30
2022-10-04T15:34:08.071Z,12.00
2022-10-04T15:36:39.052Z,12.00
2022-10-04T15:39:32.309Z,11.80
2022-10-04T15:42:14.306Z,11.70
2022-10-04T15:45:03.161Z,11.60
2022-10-04T15:48:04.797Z,11.60
2022-10-04T15:50:50.684Z,11.40
2022-10-04T15:53:38.319Z,11.20
2022-10-04T15:56:30.171Z,11.10
2022-10-04T15:59:15.348Z,11.00
2022-10-04T16:02:13.215Z,10.80
2022-10-04T16:05:17.554Z,10.70
2022-10-04T16:08:11.092Z,10.50
2022-10-04T16:10:58.725Z,10.40
2022-10-04T16:13:26.313Z,10.20
2022-10-04T16:16:15.240Z,10.10
2022-10-04T16:19:13.720Z,10.00
2022-10-04T16:22:16.173Z,9.90
2022-10-04T16:24:59.927Z,9.80
2022-10-04T16:27:44.615Z,9.70
2022-10-04T16:30:26.582Z,9.70
2022-10-04T16:33:22.295Z,9.70
2022-10-04T16:36:01.398Z,9.60
2022-10-04T16:38:34.965Z,9.60
2022-10-04T16:41:16.224Z,9.50
2022-10-04T16:43:54.763Z,9.30
2022-10-04T16:46:38.475Z,9.20
2022-10-04T16:49:41.969Z,9.20
2022-10-04T16:52:20.194Z,9.10
2022-10-04T16:55:01.097Z,8.90
2022-10-04T16:57:28.735Z,8.80
2022-10-04T17:00:00.667Z,8.80
2022-10-04T17:02:34.129Z,8.70
2022-10-04T17:05:21.345Z,8.50
2022-10-04T17:08:16.989Z,8.50
2022-10-04T17:10:50.012Z,8.40
2022-10-04T17:13:28.793Z,8.40
2022-10-04T17:16:20.542Z,8.30
2022-10-04T17:18:55.385Z,8.20
2022-10-04T17:21:37.791Z,8.10
2022-10-04T17:24:11.027Z,8.10
2022-10-04T17:27:05.577Z,8.00
2022-10-04T17:29:51.795Z,7.90
2022-10-04T17:32:26.048Z,7.90
2022-10-04T17:35:23.983Z,8.00
2022-10-04T17:38:19.092Z,8.00
2022-10-04T17:41:07.771Z,8.20
2022-10-04T17:44:06.971Z,8.30
2022-10-04T17:46:55.861Z,8.40
2022-10-04T17:50:05.342Z,8.50
2022-10-04T17:53:01.613Z,8.60
2022-10-04T17:55:44.227Z,8.80
2022-10-04T17:58:24.251Z,8.90
2022-10-04T18:01:10.122Z,9.00
2022-10-04T18:03:54.869Z,9.10
2022-10-04T18:06:28.336Z,9.20
2022-10-04T18:09:03.764Z,9.20
2022-10-04T18:11:47.332Z,9.30
2022-10-04T18:14:45.604Z,9.40
2022-10-04T18:17:33.190Z,9.40
2022-10-04T18:20:27.804Z,9.50
2022-10-04T18:23:17.027Z,9.50
2022-10-04T18:25:45.729Z,9.60
2022-10-04T18:28:21.867Z,9.50
2022-10-04T18:30:49.209Z,9.60
2022-10-04T18:33:31.764Z,9.60
2022-10-04T18:36:27.603Z,9.60
2022-10-04T18:39:11.764Z,9.70
2022-10-04T18:41:58.145Z,9.80
2022-10-04T18:44:29.789Z,9.80
2022-10-04T18:47:02.583Z,9.80
2022-10-04T18:49:43.743Z,9.90
2022-10-04T18:52:10.862Z,9.90
2022-10-04T18:55:04.486Z,10.00
2022-10-04T18:57:56.711Z,10.00
2022-10-04T19:00:42.852Z,10.00
2022-10-04T19:03:23.147Z,10.00
2022-10-04T19:06:01.562Z,10.00
2022-10-04T19:09:09.388Z,10.00
2022-10-04T19:11:59.082Z,10.10
2022-10-04T19:14:32.491Z,10.00
2022-10-04T19:17:03.822Z,10.10
2022-10-04T19:19:52.794Z,10.10
2022-10-04T19:22:56.501Z,10.10
2022-10-04T19:26:10.042Z,10.10
2022-10-04T19:28:42.325Z,10.10
2022-10-04T19:31:21.156Z,10.20
2022-10-04T19:34:03.190Z,10.20
2022-10-04T19:36:47.375Z,10.20
2022-10-04T19:39:20.327Z,10.30
2022-10-04T19:42:20.370Z,10.30
2022-10-04T19:45:15.550Z,10.40
2022-10-04T19:47:53.113Z,10.40
2022-10-04T19:50:26.142Z,10.40
2022-10-04T19:53:23.730Z,10.40
2022-10-04T19:56:04.419Z,10.40
2022-10-04T19:58:48.428Z,10.40
2022-10-04T20:01:27.380Z,10.40
2022-10-04T20:04:15.782Z,10.40
2022-10-04T20:06:53.626Z,10.50
2022-10-04T20:09:36.378Z,10.50
2022-10-04T20:12:05.619Z,10.50
2022-10-04T20:14:32.771Z,10.50
2022-10-04T20:17:02.774Z,10.50
2022-10-04T20:19:30.273Z,10.50
2022-10-04T20:22:28.916Z,10.60
2022-10-04T20:24:57.987Z,10.50
2022-10-04T20:27:25.047Z,10.50
2022-10-04T20:29:52.119Z,10.50
2022-10-04T20:32:29.948Z,10.60
2022-10-04T20:34:58.016Z,10.60
2022-10-04T20:37:43.930Z,10.70
2022-10-04T20:40:40.215Z,10.80
2022-10-04T20:43:16.362Z,10.70
2022-10-04T20:45:54.340Z,10.70
2022-10-04T20:48:28.524Z,10.70
2022-10-04T20:50:56.448Z,10.80
2022-10-04T20:53:27.157Z,10.70
2022-10-04T20:56:20.790Z,10.70
2022-10-04T20:59:01.844Z,10.60
2022-10-04T21:01:37.867Z,10.60
2022-10-04T21:04:33.535Z,10.60
2022-10-04T21:07:06.119Z,10.60
2022-10-04T21:09:35.693Z,10.60
2022-10-04T21:12:04.169Z,10.60
2022-10-04T21:14:36.380Z,10.70
2022-10-04T21:17:25.052Z,10.60
2022-10-04T21:19:52.204Z,10.50
2022-10-04T21:22:19.683Z,10.60
2022-10-04T21:24:50.056Z,10.60
2022-10-04T21:27:38.070Z,10.60
2022-10-04T21:30:18.069Z,10.60
2022-10-04T21:32:45.560Z,10.60
2022-10-04T21:35:13.173Z,10.60
2022-10-04T21:37:40.671Z,10.50
2022-10-04T21:40:08.422Z,10.50
2022-10-04T21:42:35.523Z,10.40
2022-10-04T21:45:02.757Z,10.50
2022-10-04T21:47:29.932Z,10.50
2022-10-04T21:49:57.479Z,10.50
2022-10-04T21:52:24.723Z,10.50
2022-10-04T21:54:51.832Z,10.50
2022-10-04T21:57:19.032Z,10.50
2022-10-04T21:59:47.327Z,10.40
2022-10-04T22:02:14.531Z,10.50
2022-10-04T22:04:42.034Z,10.50
2022-10-04T22:07:10.717Z,10.60
2022-10-04T22:09:37.918Z,10.60
2022-10-04T22:12:05.317Z,10.60
2022-10-04T22:14:33.002Z,10.60
2022-10-04T22:17:00.201Z,10.60
2022-10-04T22:19:27.401Z,10.60
2022-10-04T22:21:54.550Z,10.50
2022-10-04T22:24:22.189Z,10.50
2022-10-04T22:26:49.787Z,10.50
2022-10-04T22:29:18.953Z,10.50
2022-10-04T22:31:50.877Z,10.50
2022-10-04T22:34:21.166Z,10.50
2022-10-04T22:36:49.950Z,10.50
2022-10-04T22:39:19.830Z,10.50
2022-10-04T22:41:52.332Z,10.50
2022-10-04T22:44:36.643Z,10.50
2022-10-04T22:47:10.390Z,10.50
2022-10-04T22:49:41.265Z,10.40
2022-10-04T22:52:18.810Z,10.40
2022-10-04T22:54:54.147Z,10.40
2022-10-04T22:57:21.533Z,10.50
2022-10-04T22:59:51.039Z,10.40
2022-10-04T23:02:24.164Z,10.40
2022-10-04T23:04:54.796Z,10.50
2022-10-04T23:07:22.288Z,10.50
2022-10-04T23:09:50.136Z,10.50
2022-10-04T23:12:17.215Z,10.50
2022-10-04T23:14:44.385Z,10.40
2022-10-04T23:17:20.173Z,10.50
2022-10-04T23:19:47.650Z,10.50
2022-10-04T23:22:18.453Z,10.50
2022-10-04T23:24:45.693Z,10.50
2022-10-04T23:27:17.908Z,10.40
2022-10-04T23:29:48.546Z,10.50
2022-10-04T23:32:18.774Z,10.40
2022-10-04T23:34:56.303Z,10.50
2022-10-04T23:37:27.405Z,10.50
2022-10-04T23:39:54.717Z,10.40
2022-10-04T23:42:33.947Z,10.50
2022-10-04T23:45:02.178Z,10.50
2022-10-04T23:47:37.050Z,10.40
2022-10-04T23:50:25.612Z,10.50
2022-10-04T23:52:57.479Z,10.40
2022-10-04T23:55:29.208Z,10.50
2022-10-04T23:57:57.013Z,10.50
